Quick Links (Output Below):   Max & Min Temps   /   Climate Reports   /   Zone Forecasts
River Forecasts   /   Forestry Forecasts   /   Aviation Forecasts   /   Radars   /   Features

Terminal Aerodrome Forecast (Highfill)

Pick a Site:
Arkadelphia | El Dorado | Fayetteville | Fort Smith | Harrison | Highfill | Hot Springs | Jonesboro
Little Rock | Monticello | Mountain Home | Pine Bluff | Texarkana
 Forecast 

KXNA 230317Z 2303/2324 29005KT P6SM SCT025 BKN150
     FM231800 30007KT P6SM BKN100=


 Latest METARs (Observations) 
How to Decode METARs
02Z KXNA 230153Z 27008KT 8SM FEW019 08/07 A2962 RMK AO2 SLP029
         T00830072
         
01Z KXNA 230053Z 28009KT 8SM FEW013 BKN044 BKN060 09/08 A2959 RMK AO2
         RAE03 SLP020 P0000 T00890078
         
00Z KXNA 222353Z 26012KT 6SM -RA BR SCT010 BKN015 OVC038 09/08 A2958
         RMK AO2 RAB05 SLP017 P0001 60001 T00940083 10100 20094
         53023
         
***** Today's Observations (Above) *****


23Z KXNA 222253Z 25008KT 6SM BR FEW012 BKN019 OVC039 09/08 A2954 RMK
         AO2 RAB10E19 CIG 015V026 SLP003 P0000 T00940083
         
22Z KXNA 222153Z 24007KT 8SM BKN008 OVC013 10/09 A2951 RMK AO2
         RAB06E31 CIG 006V011 SLP992 P0000 T01000089
         
21Z KXNA 222053Z 22009KT 6SM BR BKN007 OVC012 09/09 A2950 RMK AO2
         RAB05E30 SLP989 P0000 60000 T00940089 56017
         
20Z KXNA 221953Z 22009KT 8SM BKN008 OVC012 10/09 A2950 RMK AO2 CIG
         005V009 SLP989 T01000089
         
19Z KXNA 221853Z 19007KT 8SM BKN006 OVC012 09/09 A2952 RMK AO2 CIG
         005V008 SLP997 T00940089
         
18Z KXNA 221753Z 18009KT 5SM BR BKN006 OVC014 09/09 A2955 RMK AO2
         RAB1656E17 CIG 004V008 SLP008 P0001 60003 T00940089 10094
         20072 58019
         
17Z KXNA 221653Z 17009KT 5SM BR OVC006 09/08 A2959 RMK AO2 RAB19E34
         CIG 003V010 SLP021 P0000 T00890083
         
***** Yesterday's Observations (Above) *****


Back to Main Page
http://www.srh.noaa.gov/lzk/qfcst.php

USA.gov is the U.S. government's official web portal to all federal, state and local government web resources and services.